sensor_id;sensor_type;location;lat;lon;timestamp;temperature;humidity
21035;DHT22;10676;50.848;3.272;2023-03-31T00:01:26;12.30;99.90
21035;DHT22;10676;50.848;3.272;2023-03-31T00:03:52;12.20;99.90
21035;DHT22;10676;50.848;3.272;2023-03-31T00:06:26;12.20;99.90
21035;DHT22;10676;50.848;3.272;2023-03-31T00:08:52;12.20;99.90
21035;DHT22;10676;50.848;3.272;2023-03-31T00:11:19;12.20;99.90
21035;DHT22;10676;50.848;3.272;2023-03-31T00:13:45;12.20;99.90
21035;DHT22;10676;50.848;3.272;2023-03-31T00:16:11;12.10;99.90
21035;DHT22;10676;50.848;3.272;2023-03-31T00:18:37;12.10;99.90
21035;DHT22;10676;50.848;3.272;2023-03-31T00:21:13;12.10;99.90
21035;DHT22;10676;50.848;3.272;2023-03-31T00:23:52;12.10;99.90
21035;DHT22;10676;50.848;3.272;2023-03-31T00:26:18;12.10;99.90
21035;DHT22;10676;50.848;3.272;2023-03-31T00:28:44;12.10;99.90
21035;DHT22;10676;50.848;3.272;2023-03-31T00:31:09;12.10;99.90
21035;DHT22;10676;50.848;3.272;2023-03-31T00:33:35;12.10;99.90
21035;DHT22;10676;50.848;3.272;2023-03-31T00:36:01;12.10;99.90
21035;DHT22;10676;50.848;3.272;2023-03-31T00:38:31;12.20;99.90
21035;DHT22;10676;50.848;3.272;2023-03-31T00:40:58;12.20;99.90
21035;DHT22;10676;50.848;3.272;2023-03-31T00:47:01;12.20;99.90
21035;DHT22;10676;50.848;3.272;2023-03-31T00:49:31;12.20;99.90
21035;DHT22;10676;50.848;3.272;2023-03-31T00:52:16;12.20;99.90
21035;DHT22;10676;50.848;3.272;2023-03-31T00:54:49;12.20;99.90
21035;DHT22;10676;50.848;3.272;2023-03-31T00:57:16;12.20;99.90
21035;DHT22;10676;50.848;3.272;2023-03-31T01:00:03;12.20;99.90
21035;DHT22;10676;50.848;3.272;2023-03-31T01:02:45;12.20;99.90
21035;DHT22;10676;50.848;3.272;2023-03-31T01:05:23;12.20;99.90
21035;DHT22;10676;50.848;3.272;2023-03-31T01:07:51;12.10;99.90
21035;DHT22;10676;50.848;3.272;2023-03-31T01:10:17;12.10;99.90
21035;DHT22;10676;50.848;3.272;2023-03-31T01:12:46;12.10;99.90
21035;DHT22;10676;50.848;3.272;2023-03-31T01:15:13;12.20;99.90
21035;DHT22;10676;50.848;3.272;2023-03-31T01:17:39;12.10;99.90
21035;DHT22;10676;50.848;3.272;2023-03-31T01:45:17;12.10;99.90
21035;DHT22;10676;50.848;3.272;2023-03-31T01:50:46;12.00;99.90
21035;DHT22;10676;50.848;3.272;2023-03-31T01:59:08;12.10;99.90
21035;DHT22;10676;50.848;3.272;2023-03-31T02:01:51;12.10;99.90
21035;DHT22;10676;50.848;3.272;2023-03-31T02:04:23;12.10;99.90
21035;DHT22;10676;50.848;3.272;2023-03-31T02:06:54;12.00;99.90
21035;DHT22;10676;50.848;3.272;2023-03-31T02:09:25;12.00;99.90
21035;DHT22;10676;50.848;3.272;2023-03-31T02:11:54;12.00;99.90
21035;DHT22;10676;50.848;3.272;2023-03-31T02:14:24;12.00;99.90
21035;DHT22;10676;50.848;3.272;2023-03-31T02:16:57;12.00;99.90
21035;DHT22;10676;50.848;3.272;2023-03-31T02:19:26;11.90;99.90
21035;DHT22;10676;50.848;3.272;2023-03-31T02:21:54;12.00;99.90
21035;DHT22;10676;50.848;3.272;2023-03-31T02:24:22;11.90;99.90
21035;DHT22;10676;50.848;3.272;2023-03-31T02:29:31;11.90;99.90
21035;DHT22;10676;50.848;3.272;2023-03-31T02:32:20;12.00;99.90
21035;DHT22;10676;50.848;3.272;2023-03-31T02:34:47;12.00;99.90
21035;DHT22;10676;50.848;3.272;2023-03-31T02:37:13;11.90;99.90
21035;DHT22;10676;50.848;3.272;2023-03-31T02:39:41;11.90;99.90
21035;DHT22;10676;50.848;3.272;2023-03-31T02:42:10;11.90;99.90
21035;DHT22;10676;50.848;3.272;2023-03-31T02:44:37;11.90;99.90
21035;DHT22;10676;50.848;3.272;2023-03-31T02:47:06;11.90;99.90
21035;DHT22;10676;50.848;3.272;2023-03-31T02:49:34;11.80;99.90
21035;DHT22;10676;50.848;3.272;2023-03-31T02:55:20;11.70;99.90
21035;DHT22;10676;50.848;3.272;2023-03-31T03:00:39;11.70;99.90
21035;DHT22;10676;50.848;3.272;2023-03-31T03:19:59;11.40;99.90
21035;DHT22;10676;50.848;3.272;2023-03-31T03:22:25;11.30;99.90
21035;DHT22;10676;50.848;3.272;2023-03-31T03:24:51;11.30;99.90
21035;DHT22;10676;50.848;3.272;2023-03-31T03:27:18;11.20;99.90
21035;DHT22;10676;50.848;3.272;2023-03-31T03:29:44;11.20;99.90
21035;DHT22;10676;50.848;3.272;2023-03-31T03:32:11;11.10;99.90
21035;DHT22;10676;50.848;3.272;2023-03-31T03:34:37;11.00;99.90
21035;DHT22;10676;50.848;3.272;2023-03-31T03:37:03;11.00;99.90
21035;DHT22;10676;50.848;3.272;2023-03-31T03:39:29;11.00;99.90
21035;DHT22;10676;50.848;3.272;2023-03-31T03:41:54;10.90;99.90
21035;DHT22;10676;50.848;3.272;2023-03-31T03:44:20;11.00;99.90
21035;DHT22;10676;50.848;3.272;2023-03-31T03:46:45;11.10;99.90
21035;DHT22;10676;50.848;3.272;2023-03-31T03:49:11;11.00;99.90
21035;DHT22;10676;50.848;3.272;2023-03-31T03:51:37;11.00;99.90
21035;DHT22;10676;50.848;3.272;2023-03-31T03:54:02;11.00;99.90
21035;DHT22;10676;50.848;3.272;2023-03-31T03:56:28;11.00;99.90
21035;DHT22;10676;50.848;3.272;2023-03-31T03:58:54;11.10;99.90
21035;DHT22;10676;50.848;3.272;2023-03-31T04:01:19;11.10;99.90
21035;DHT22;10676;50.848;3.272;2023-03-31T04:03:45;11.10;99.90
21035;DHT22;10676;50.848;3.272;2023-03-31T04:06:11;11.00;99.90
21035;DHT22;10676;50.848;3.272;2023-03-31T04:08:37;11.00;99.90
21035;DHT22;10676;50.848;3.272;2023-03-31T04:11:03;11.00;99.90
21035;DHT22;10676;50.848;3.272;2023-03-31T04:13:34;11.00;99.90
21035;DHT22;10676;50.848;3.272;2023-03-31T04:15:59;11.00;99.90
21035;DHT22;10676;50.848;3.272;2023-03-31T04:18:25;11.00;99.90
21035;DHT22;10676;50.848;3.272;2023-03-31T04:20:52;11.00;99.90
21035;DHT22;10676;50.848;3.272;2023-03-31T04:23:39;11.00;99.90
21035;DHT22;10676;50.848;3.272;2023-03-31T04:26:12;11.00;99.90
21035;DHT22;10676;50.848;3.272;2023-03-31T04:28:39;10.90;99.90
21035;DHT22;10676;50.848;3.272;2023-03-31T04:31:10;10.90;99.90
21035;DHT22;10676;50.848;3.272;2023-03-31T04:33:39;10.90;99.90
21035;DHT22;10676;50.848;3.272;2023-03-31T04:36:09;10.90;99.90
21035;DHT22;10676;50.848;3.272;2023-03-31T04:38:48;10.90;99.90
21035;DHT22;10676;50.848;3.272;2023-03-31T04:41:21;11.00;99.90
21035;DHT22;10676;50.848;3.272;2023-03-31T04:43:47;11.00;99.90
21035;DHT22;10676;50.848;3.272;2023-03-31T04:46:13;11.00;99.90
21035;DHT22;10676;50.848;3.272;2023-03-31T04:48:39;11.00;99.90
21035;DHT22;10676;50.848;3.272;2023-03-31T04:51:05;11.00;99.90
21035;DHT22;10676;50.848;3.272;2023-03-31T04:53:31;11.00;99.90
21035;DHT22;10676;50.848;3.272;2023-03-31T04:55:57;11.00;99.90
21035;DHT22;10676;50.848;3.272;2023-03-31T04:58:22;11.00;99.90
21035;DHT22;10676;50.848;3.272;2023-03-31T05:00:48;11.10;99.90
21035;DHT22;10676;50.848;3.272;2023-03-31T05:03:14;11.00;99.90
21035;DHT22;10676;50.848;3.272;2023-03-31T05:05:40;11.00;99.90
21035;DHT22;10676;50.848;3.272;2023-03-31T05:08:06;11.10;99.90
21035;DHT22;10676;50.848;3.272;2023-03-31T05:10:32;11.10;99.90
21035;DHT22;10676;50.848;3.272;2023-03-31T05:12:58;11.10;99.90
21035;DHT22;10676;50.848;3.272;2023-03-31T05:15:23;11.10;99.90
21035;DHT22;10676;50.848;3.272;2023-03-31T05:17:49;11.20;99.90
21035;DHT22;10676;50.848;3.272;2023-03-31T05:20:17;11.20;99.90
21035;DHT22;10676;50.848;3.272;2023-03-31T05:22:45;11.20;99.90
21035;DHT22;10676;50.848;3.272;2023-03-31T05:25:12;11.30;99.90
21035;DHT22;10676;50.848;3.272;2023-03-31T05:27:47;11.30;99.90
21035;DHT22;10676;50.848;3.272;2023-03-31T05:30:14;11.30;99.90
21035;DHT22;10676;50.848;3.272;2023-03-31T05:32:40;11.40;99.90
21035;DHT22;10676;50.848;3.272;2023-03-31T05:35:06;11.40;99.90
21035;DHT22;10676;50.848;3.272;2023-03-31T05:37:32;11.40;99.90
21035;DHT22;10676;50.848;3.272;2023-03-31T05:39:57;11.40;99.90
21035;DHT22;10676;50.848;3.272;2023-03-31T05:42:23;11.40;99.90
21035;DHT22;10676;50.848;3.272;2023-03-31T05:44:49;11.40;99.90
21035;DHT22;10676;50.848;3.272;2023-03-31T05:47:15;11.50;99.90
21035;DHT22;10676;50.848;3.272;2023-03-31T05:49:42;11.50;99.90
21035;DHT22;10676;50.848;3.272;2023-03-31T05:52:08;11.60;99.90
21035;DHT22;10676;50.848;3.272;2023-03-31T05:54:34;11.60;99.90
21035;DHT22;10676;50.848;3.272;2023-03-31T05:57:00;11.70;99.90
21035;DHT22;10676;50.848;3.272;2023-03-31T05:59:26;11.70;99.90
21035;DHT22;10676;50.848;3.272;2023-03-31T06:01:51;11.70;99.90
21035;DHT22;10676;50.848;3.272;2023-03-31T06:04:18;11.80;99.90
21035;DHT22;10676;50.848;3.272;2023-03-31T06:06:44;11.80;99.90
21035;DHT22;10676;50.848;3.272;2023-03-31T06:09:11;11.90;99.90
21035;DHT22;10676;50.848;3.272;2023-03-31T06:11:37;11.90;99.90
21035;DHT22;10676;50.848;3.272;2023-03-31T06:14:03;11.90;99.90
21035;DHT22;10676;50.848;3.272;2023-03-31T06:16:30;11.90;99.90
21035;DHT22;10676;50.848;3.272;2023-03-31T06:18:56;12.00;99.90
21035;DHT22;10676;50.848;3.272;2023-03-31T06:21:21;12.00;99.90
21035;DHT22;10676;50.848;3.272;2023-03-31T06:23:48;12.00;99.90
21035;DHT22;10676;50.848;3.272;2023-03-31T06:26:17;12.10;99.90
21035;DHT22;10676;50.848;3.272;2023-03-31T06:28:44;12.10;99.90
21035;DHT22;10676;50.848;3.272;2023-03-31T06:31:13;12.20;99.90
21035;DHT22;10676;50.848;3.272;2023-03-31T06:33:40;12.30;99.90
21035;DHT22;10676;50.848;3.272;2023-03-31T06:36:06;12.30;99.90
21035;DHT22;10676;50.848;3.272;2023-03-31T06:38:34;12.40;99.90
21035;DHT22;10676;50.848;3.272;2023-03-31T06:41:00;12.40;99.90
21035;DHT22;10676;50.848;3.272;2023-03-31T06:43:26;12.40;99.90
21035;DHT22;10676;50.848;3.272;2023-03-31T06:45:53;12.50;99.90
21035;DHT22;10676;50.848;3.272;2023-03-31T06:48:19;12.60;99.90
21035;DHT22;10676;50.848;3.272;2023-03-31T06:50:45;12.60;99.90
21035;DHT22;10676;50.848;3.272;2023-03-31T06:53:11;12.60;99.90
21035;DHT22;10676;50.848;3.272;2023-03-31T06:55:37;12.70;99.90
21035;DHT22;10676;50.848;3.272;2023-03-31T06:58:03;12.80;99.90
21035;DHT22;10676;50.848;3.272;2023-03-31T07:00:31;12.90;99.90
21035;DHT22;10676;50.848;3.272;2023-03-31T07:02:58;12.90;99.90
21035;DHT22;10676;50.848;3.272;2023-03-31T07:05:23;13.10;99.90
21035;DHT22;10676;50.848;3.272;2023-03-31T07:07:56;13.10;99.90
21035;DHT22;10676;50.848;3.272;2023-03-31T07:10:23;13.10;99.90
21035;DHT22;10676;50.848;3.272;2023-03-31T07:12:49;13.20;99.90
21035;DHT22;10676;50.848;3.272;2023-03-31T07:15:15;13.30;99.90
21035;DHT22;10676;50.848;3.272;2023-03-31T07:17:41;13.30;99.90
21035;DHT22;10676;50.848;3.272;2023-03-31T07:20:14;13.40;99.90
21035;DHT22;10676;50.848;3.272;2023-03-31T07:22:44;13.30;99.90
21035;DHT22;10676;50.848;3.272;2023-03-31T07:25:12;13.30;99.90
21035;DHT22;10676;50.848;3.272;2023-03-31T07:27:39;13.30;99.90
21035;DHT22;10676;50.848;3.272;2023-03-31T07:30:15;13.30;99.90
21035;DHT22;10676;50.848;3.272;2023-03-31T07:32:42;13.30;99.90
21035;DHT22;10676;50.848;3.272;2023-03-31T07:35:09;13.30;99.90
21035;DHT22;10676;50.848;3.272;2023-03-31T07:37:36;13.30;99.90
21035;DHT22;10676;50.848;3.272;2023-03-31T07:40:03;13.30;99.90
21035;DHT22;10676;50.848;3.272;2023-03-31T07:42:30;13.40;99.90
21035;DHT22;10676;50.848;3.272;2023-03-31T07:44:56;13.40;99.90
21035;DHT22;10676;50.848;3.272;2023-03-31T07:47:22;13.50;99.90
21035;DHT22;10676;50.848;3.272;2023-03-31T07:49:49;13.50;99.90
21035;DHT22;10676;50.848;3.272;2023-03-31T07:52:15;13.60;99.90
21035;DHT22;10676;50.848;3.272;2023-03-31T07:54:41;13.60;99.90
21035;DHT22;10676;50.848;3.272;2023-03-31T07:57:07;13.60;99.90
21035;DHT22;10676;50.848;3.272;2023-03-31T07:59:33;13.60;99.90
21035;DHT22;10676;50.848;3.272;2023-03-31T08:01:59;13.60;99.90
21035;DHT22;10676;50.848;3.272;2023-03-31T08:04:25;13.70;99.90
21035;DHT22;10676;50.848;3.272;2023-03-31T08:06:51;13.80;99.90
21035;DHT22;10676;50.848;3.272;2023-03-31T08:09:16;13.80;99.90
21035;DHT22;10676;50.848;3.272;2023-03-31T08:11:42;13.90;99.90
21035;DHT22;10676;50.848;3.272;2023-03-31T08:14:08;13.90;99.90
21035;DHT22;10676;50.848;3.272;2023-03-31T08:16:34;14.00;99.90
21035;DHT22;10676;50.848;3.272;2023-03-31T08:19:00;14.10;99.90
21035;DHT22;10676;50.848;3.272;2023-03-31T08:21:28;14.00;99.90
21035;DHT22;10676;50.848;3.272;2023-03-31T08:23:54;14.00;99.90
21035;DHT22;10676;50.848;3.272;2023-03-31T08:26:20;14.00;99.90
21035;DHT22;10676;50.848;3.272;2023-03-31T08:28:46;14.10;99.90
21035;DHT22;10676;50.848;3.272;2023-03-31T08:31:17;14.20;99.90
21035;DHT22;10676;50.848;3.272;2023-03-31T08:33:44;14.30;99.90
21035;DHT22;10676;50.848;3.272;2023-03-31T08:36:10;14.30;99.90
21035;DHT22;10676;50.848;3.272;2023-03-31T08:38:38;14.40;99.90
21035;DHT22;10676;50.848;3.272;2023-03-31T08:41:14;14.40;99.90
21035;DHT22;10676;50.848;3.272;2023-03-31T08:43:47;14.30;99.90
21035;DHT22;10676;50.848;3.272;2023-03-31T08:46:16;14.20;99.90
21035;DHT22;10676;50.848;3.272;2023-03-31T08:48:55;14.00;99.90
21035;DHT22;10676;50.848;3.272;2023-03-31T08:51:40;13.90;99.90
21035;DHT22;10676;50.848;3.272;2023-03-31T08:54:34;13.80;99.90
21035;DHT22;10676;50.848;3.272;2023-03-31T08:57:05;13.80;99.90
21035;DHT22;10676;50.848;3.272;2023-03-31T08:59:36;13.70;99.90
21035;DHT22;10676;50.848;3.272;2023-03-31T09:16:16;13.20;99.90
21035;DHT22;10676;50.848;3.272;2023-03-31T09:18:33;13.10;99.90
21035;DHT22;10676;50.848;3.272;2023-03-31T09:21:25;13.00;99.90
21035;DHT22;10676;50.848;3.272;2023-03-31T09:24:05;13.00;99.90
21035;DHT22;10676;50.848;3.272;2023-03-31T09:26:52;13.10;99.90
21035;DHT22;10676;50.848;3.272;2023-03-31T09:32:19;13.10;99.90
21035;DHT22;10676;50.848;3.272;2023-03-31T09:34:46;13.10;99.90
21035;DHT22;10676;50.848;3.272;2023-03-31T09:37:15;13.20;99.90
21035;DHT22;10676;50.848;3.272;2023-03-31T09:39:40;13.30;99.90
21035;DHT22;10676;50.848;3.272;2023-03-31T09:42:10;13.30;99.90
21035;DHT22;10676;50.848;3.272;2023-03-31T09:44:43;13.10;99.90
21035;DHT22;10676;50.848;3.272;2023-03-31T09:47:34;13.00;99.90
21035;DHT22;10676;50.848;3.272;2023-03-31T09:50:04;12.90;99.90
21035;DHT22;10676;50.848;3.272;2023-03-31T09:52:33;12.80;99.90
21035;DHT22;10676;50.848;3.272;2023-03-31T09:55:08;12.80;99.90
21035;DHT22;10676;50.848;3.272;2023-03-31T09:57:38;12.80;99.90
21035;DHT22;10676;50.848;3.272;2023-03-31T10:03:03;12.70;99.90
21035;DHT22;10676;50.848;3.272;2023-03-31T10:05:33;12.80;99.90
21035;DHT22;10676;50.848;3.272;2023-03-31T10:10:51;12.80;99.90
21035;DHT22;10676;50.848;3.272;2023-03-31T10:16:11;12.60;99.90
21035;DHT22;10676;50.848;3.272;2023-03-31T10:18:41;12.50;99.90
21035;DHT22;10676;50.848;3.272;2023-03-31T10:21:35;12.60;99.90
21035;DHT22;10676;50.848;3.272;2023-03-31T10:24:08;12.60;99.90
21035;DHT22;10676;50.848;3.272;2023-03-31T10:26:34;12.50;99.90
21035;DHT22;10676;50.848;3.272;2023-03-31T10:29:00;12.40;99.90
21035;DHT22;10676;50.848;3.272;2023-03-31T10:31:33;12.40;99.90
21035;DHT22;10676;50.848;3.272;2023-03-31T10:34:07;12.40;99.90
21035;DHT22;10676;50.848;3.272;2023-03-31T10:36:33;12.30;99.90
21035;DHT22;10676;50.848;3.272;2023-03-31T10:39:04;12.40;99.90
21035;DHT22;10676;50.848;3.272;2023-03-31T10:41:31;12.30;99.90
21035;DHT22;10676;50.848;3.272;2023-03-31T10:43:59;12.40;99.90
21035;DHT22;10676;50.848;3.272;2023-03-31T10:46:49;12.50;99.90
21035;DHT22;10676;50.848;3.272;2023-03-31T10:51:53;12.40;99.90
21035;DHT22;10676;50.848;3.272;2023-03-31T10:54:19;12.50;99.90
21035;DHT22;10676;50.848;3.272;2023-03-31T10:59:53;12.80;99.90
21035;DHT22;10676;50.848;3.272;2023-03-31T11:05:41;12.70;99.90
21035;DHT22;10676;50.848;3.272;2023-03-31T11:13:56;12.70;99.90
21035;DHT22;10676;50.848;3.272;2023-03-31T11:30:32;12.30;99.90
21035;DHT22;10676;50.848;3.272;2023-03-31T11:38:52;12.20;99.90
21035;DHT22;10676;50.848;3.272;2023-03-31T11:41:43;12.20;99.90
21035;DHT22;10676;50.848;3.272;2023-03-31T11:44:12;12.10;99.90
21035;DHT22;10676;50.848;3.272;2023-03-31T11:46:55;12.20;99.90
21035;DHT22;10676;50.848;3.272;2023-03-31T11:49:31;12.10;99.90
21035;DHT22;10676;50.848;3.272;2023-03-31T11:52:19;12.00;99.90
21035;DHT22;10676;50.848;3.272;2023-03-31T11:54:57;11.90;99.90
21035;DHT22;10676;50.848;3.272;2023-03-31T12:00:31;12.10;99.90
21035;DHT22;10676;50.848;3.272;2023-03-31T12:03:22;12.20;99.90
21035;DHT22;10676;50.848;3.272;2023-03-31T12:06:00;12.30;99.90
21035;DHT22;10676;50.848;3.272;2023-03-31T12:08:42;12.30;99.90
21035;DHT22;10676;50.848;3.272;2023-03-31T12:11:25;12.40;99.90
21035;DHT22;10676;50.848;3.272;2023-03-31T12:16:52;12.50;99.90
21035;DHT22;10676;50.848;3.272;2023-03-31T12:19:42;12.40;99.90
21035;DHT22;10676;50.848;3.272;2023-03-31T12:22:17;12.30;99.90
21035;DHT22;10676;50.848;3.272;2023-03-31T12:24:44;12.20;99.90
21035;DHT22;10676;50.848;3.272;2023-03-31T12:27:41;12.10;99.90
21035;DHT22;10676;50.848;3.272;2023-03-31T12:30:23;12.20;99.90
21035;DHT22;10676;50.848;3.272;2023-03-31T12:33:01;12.20;99.90
21035;DHT22;10676;50.848;3.272;2023-03-31T12:47:02;12.20;99.90
21035;DHT22;10676;50.848;3.272;2023-03-31T12:50:15;12.30;99.90
21035;DHT22;10676;50.848;3.272;2023-03-31T12:55:45;12.40;99.90
21035;DHT22;10676;50.848;3.272;2023-03-31T13:01:13;12.40;99.90
21035;DHT22;10676;50.848;3.272;2023-03-31T13:06:45;12.30;99.90
21035;DHT22;10676;50.848;3.272;2023-03-31T13:08:58;12.20;99.90
21035;DHT22;10676;50.848;3.272;2023-03-31T13:16:41;12.00;99.90
21035;DHT22;10676;50.848;3.272;2023-03-31T13:19:25;12.00;99.90
21035;DHT22;10676;50.848;3.272;2023-03-31T13:21:56;12.00;99.90
21035;DHT22;10676;50.848;3.272;2023-03-31T13:24:23;11.90;99.90
21035;DHT22;10676;50.848;3.272;2023-03-31T13:26:50;11.80;99.90
21035;DHT22;10676;50.848;3.272;2023-03-31T13:32:21;11.60;99.90
21035;DHT22;10676;50.848;3.272;2023-03-31T13:34:57;11.60;99.90
21035;DHT22;10676;50.848;3.272;2023-03-31T13:51:28;11.20;99.90
21035;DHT22;10676;50.848;3.272;2023-03-31T14:05:27;11.30;99.90
21035;DHT22;10676;50.848;3.272;2023-03-31T14:08:09;11.30;99.90
21035;DHT22;10676;50.848;3.272;2023-03-31T14:10:38;11.30;99.90
21035;DHT22;10676;50.848;3.272;2023-03-31T14:13:17;11.40;99.90
21035;DHT22;10676;50.848;3.272;2023-03-31T14:15:56;11.50;99.90
21035;DHT22;10676;50.848;3.272;2023-03-31T14:18:28;11.60;99.90
21035;DHT22;10676;50.848;3.272;2023-03-31T14:21:13;11.60;99.90
21035;DHT22;10676;50.848;3.272;2023-03-31T14:27:13;11.70;99.90
21035;DHT22;10676;50.848;3.272;2023-03-31T14:34:43;11.70;99.90
21035;DHT22;10676;50.848;3.272;2023-03-31T14:37:14;11.70;99.90
21035;DHT22;10676;50.848;3.272;2023-03-31T14:39:55;11.60;99.90
21035;DHT22;10676;50.848;3.272;2023-03-31T14:42:39;11.50;99.90
21035;DHT22;10676;50.848;3.272;2023-03-31T14:45:25;11.40;99.90
21035;DHT22;10676;50.848;3.272;2023-03-31T14:48:02;11.40;99.90
21035;DHT22;10676;50.848;3.272;2023-03-31T14:50:33;11.40;99.90
21035;DHT22;10676;50.848;3.272;2023-03-31T14:52:59;11.50;99.90
21035;DHT22;10676;50.848;3.272;2023-03-31T14:55:27;11.50;99.90
21035;DHT22;10676;50.848;3.272;2023-03-31T14:57:56;11.60;99.90
21035;DHT22;10676;50.848;3.272;2023-03-31T15:00:29;11.60;99.90
21035;DHT22;10676;50.848;3.272;2023-03-31T15:02:56;11.60;99.90
21035;DHT22;10676;50.848;3.272;2023-03-31T15:05:29;11.60;99.90
21035;DHT22;10676;50.848;3.272;2023-03-31T15:08:06;11.60;99.90
21035;DHT22;10676;50.848;3.272;2023-03-31T15:10:38;11.70;99.90
21035;DHT22;10676;50.848;3.272;2023-03-31T15:13:17;11.70;99.90
21035;DHT22;10676;50.848;3.272;2023-03-31T15:15:44;11.80;99.90
21035;DHT22;10676;50.848;3.272;2023-03-31T15:18:17;11.80;99.90
21035;DHT22;10676;50.848;3.272;2023-03-31T15:20:44;12.00;99.90
21035;DHT22;10676;50.848;3.272;2023-03-31T15:23:40;12.10;99.90
21035;DHT22;10676;50.848;3.272;2023-03-31T15:26:08;12.10;99.90
21035;DHT22;10676;50.848;3.272;2023-03-31T15:28:41;12.20;99.90
21035;DHT22;10676;50.848;3.272;2023-03-31T15:31:08;12.30;99.90
21035;DHT22;10676;50.848;3.272;2023-03-31T15:33:35;12.40;99.90
21035;DHT22;10676;50.848;3.272;2023-03-31T15:36:06;12.40;99.90
21035;DHT22;10676;50.848;3.272;2023-03-31T15:38:32;12.40;99.90
21035;DHT22;10676;50.848;3.272;2023-03-31T15:40:59;12.40;99.90
21035;DHT22;10676;50.848;3.272;2023-03-31T15:43:44;12.40;99.90
21035;DHT22;10676;50.848;3.272;2023-03-31T15:46:23;12.40;99.90
21035;DHT22;10676;50.848;3.272;2023-03-31T15:48:54;12.30;99.90
21035;DHT22;10676;50.848;3.272;2023-03-31T15:51:40;12.30;99.90
21035;DHT22;10676;50.848;3.272;2023-03-31T15:56:56;12.10;99.90
21035;DHT22;10676;50.848;3.272;2023-03-31T15:59:31;11.90;99.90
21035;DHT22;10676;50.848;3.272;2023-03-31T16:02:12;11.80;99.90
21035;DHT22;10676;50.848;3.272;2023-03-31T16:04:38;11.70;99.90
21035;DHT22;10676;50.848;3.272;2023-03-31T16:07:07;11.70;99.90
21035;DHT22;10676;50.848;3.272;2023-03-31T16:12:20;11.50;99.90
21035;DHT22;10676;50.848;3.272;2023-03-31T16:14:58;11.50;99.90
21035;DHT22;10676;50.848;3.272;2023-03-31T16:17:35;11.50;99.90
21035;DHT22;10676;50.848;3.272;2023-03-31T16:20:09;11.40;99.90
21035;DHT22;10676;50.848;3.272;2023-03-31T16:22:44;11.40;99.90
21035;DHT22;10676;50.848;3.272;2023-03-31T16:25:14;11.40;99.90
21035;DHT22;10676;50.848;3.272;2023-03-31T16:27:44;11.40;99.90
21035;DHT22;10676;50.848;3.272;2023-03-31T16:30:16;11.40;99.90
21035;DHT22;10676;50.848;3.272;2023-03-31T16:33:04;11.50;99.90
21035;DHT22;10676;50.848;3.272;2023-03-31T16:35:36;11.50;99.90
21035;DHT22;10676;50.848;3.272;2023-03-31T16:38:03;11.50;99.90
21035;DHT22;10676;50.848;3.272;2023-03-31T16:40:30;11.50;99.90
21035;DHT22;10676;50.848;3.272;2023-03-31T16:43:24;11.50;99.90
21035;DHT22;10676;50.848;3.272;2023-03-31T16:45:53;11.60;99.90
21035;DHT22;10676;50.848;3.272;2023-03-31T16:48:20;11.50;99.90
21035;DHT22;10676;50.848;3.272;2023-03-31T16:50:49;11.40;99.90
21035;DHT22;10676;50.848;3.272;2023-03-31T16:53:18;11.40;99.90
21035;DHT22;10676;50.848;3.272;2023-03-31T16:55:44;11.30;99.90
21035;DHT22;10676;50.848;3.272;2023-03-31T16:58:11;11.30;99.90
21035;DHT22;10676;50.848;3.272;2023-03-31T17:00:37;11.30;99.90
21035;DHT22;10676;50.848;3.272;2023-03-31T17:03:05;11.30;99.90
21035;DHT22;10676;50.848;3.272;2023-03-31T17:05:40;11.30;99.90
21035;DHT22;10676;50.848;3.272;2023-03-31T17:08:07;11.30;99.90
21035;DHT22;10676;50.848;3.272;2023-03-31T17:10:33;11.30;99.90
21035;DHT22;10676;50.848;3.272;2023-03-31T17:12:59;11.40;99.90
21035;DHT22;10676;50.848;3.272;2023-03-31T17:15:25;11.40;99.90
21035;DHT22;10676;50.848;3.272;2023-03-31T17:17:51;11.50;99.90
21035;DHT22;10676;50.848;3.272;2023-03-31T17:20:17;11.60;99.90
21035;DHT22;10676;50.848;3.272;2023-03-31T17:22:43;11.60;99.90
21035;DHT22;10676;50.848;3.272;2023-03-31T17:25:08;11.60;99.90
21035;DHT22;10676;50.848;3.272;2023-03-31T17:27:34;11.70;99.90
21035;DHT22;10676;50.848;3.272;2023-03-31T17:30:00;11.60;99.90
21035;DHT22;10676;50.848;3.272;2023-03-31T17:32:26;11.70;99.90
21035;DHT22;10676;50.848;3.272;2023-03-31T17:34:52;11.70;99.90
21035;DHT22;10676;50.848;3.272;2023-03-31T17:37:19;11.60;99.90
21035;DHT22;10676;50.848;3.272;2023-03-31T17:39:45;11.60;99.90
21035;DHT22;10676;50.848;3.272;2023-03-31T17:42:11;11.50;99.90
21035;DHT22;10676;50.848;3.272;2023-03-31T17:44:38;11.40;99.90
21035;DHT22;10676;50.848;3.272;2023-03-31T17:47:04;11.40;99.90
21035;DHT22;10676;50.848;3.272;2023-03-31T17:49:30;11.30;99.90
21035;DHT22;10676;50.848;3.272;2023-03-31T17:51:57;11.30;99.90
21035;DHT22;10676;50.848;3.272;2023-03-31T17:54:23;11.30;99.90
21035;DHT22;10676;50.848;3.272;2023-03-31T17:56:49;11.30;99.90
21035;DHT22;10676;50.848;3.272;2023-03-31T17:59:16;11.40;99.90
21035;DHT22;10676;50.848;3.272;2023-03-31T18:01:43;11.30;99.90
21035;DHT22;10676;50.848;3.272;2023-03-31T18:04:09;11.30;99.90
21035;DHT22;10676;50.848;3.272;2023-03-31T18:06:35;11.30;99.90
21035;DHT22;10676;50.848;3.272;2023-03-31T18:09:01;11.30;99.90
21035;DHT22;10676;50.848;3.272;2023-03-31T18:11:27;11.20;99.90
21035;DHT22;10676;50.848;3.272;2023-03-31T18:13:53;11.10;99.90
21035;DHT22;10676;50.848;3.272;2023-03-31T18:16:19;11.10;99.90
21035;DHT22;10676;50.848;3.272;2023-03-31T18:18:45;11.10;99.90
21035;DHT22;10676;50.848;3.272;2023-03-31T18:21:12;11.00;99.90
21035;DHT22;10676;50.848;3.272;2023-03-31T18:23:39;11.00;99.90
21035;DHT22;10676;50.848;3.272;2023-03-31T18:26:06;10.90;99.90
21035;DHT22;10676;50.848;3.272;2023-03-31T18:28:32;10.80;99.90
21035;DHT22;10676;50.848;3.272;2023-03-31T18:31:04;10.70;99.90
21035;DHT22;10676;50.848;3.272;2023-03-31T18:33:31;10.70;99.90
21035;DHT22;10676;50.848;3.272;2023-03-31T18:35:56;10.70;99.90
21035;DHT22;10676;50.848;3.272;2023-03-31T18:38:23;10.70;99.90
21035;DHT22;10676;50.848;3.272;2023-03-31T18:40:50;10.70;99.90
21035;DHT22;10676;50.848;3.272;2023-03-31T18:43:17;10.70;99.90
21035;DHT22;10676;50.848;3.272;2023-03-31T18:45:47;10.70;99.90
21035;DHT22;10676;50.848;3.272;2023-03-31T18:48:13;10.60;99.90
21035;DHT22;10676;50.848;3.272;2023-03-31T18:50:39;10.60;99.90
21035;DHT22;10676;50.848;3.272;2023-03-31T18:53:04;10.50;99.90
21035;DHT22;10676;50.848;3.272;2023-03-31T18:55:30;10.60;99.90
21035;DHT22;10676;50.848;3.272;2023-03-31T18:57:55;10.60;99.90
21035;DHT22;10676;50.848;3.272;2023-03-31T19:00:22;10.50;99.90
21035;DHT22;10676;50.848;3.272;2023-03-31T19:02:48;10.50;99.90
21035;DHT22;10676;50.848;3.272;2023-03-31T19:05:13;10.60;99.90